sensor_id;sensor_type;location;lat;lon;timestamp;pressure;altitude;pressure_sealevel;temperature;humidity
26489;BME280;14169;43.684;10.484;2023-04-21T00:00:59;101151.19;;;13.65;100.00
26489;BME280;14169;43.684;10.484;2023-04-21T00:03:25;101147.31;;;13.52;100.00
26489;BME280;14169;43.684;10.484;2023-04-21T00:05:52;101140.63;;;13.44;100.00
26489;BME280;14169;43.684;10.484;2023-04-21T00:08:20;101142.66;;;13.36;100.00
26489;BME280;14169;43.684;10.484;2023-04-21T00:10:46;101140.13;;;13.35;100.00
26489;BME280;14169;43.684;10.484;2023-04-21T00:13:11;101133.31;;;13.29;100.00
26489;BME280;14169;43.684;10.484;2023-04-21T00:15:37;101132.59;;;13.26;100.00
26489;BME280;14169;43.684;10.484;2023-04-21T00:18:03;101140.44;;;13.26;100.00
26489;BME280;14169;43.684;10.484;2023-04-21T00:20:29;101138.84;;;13.22;100.00
26489;BME280;14169;43.684;10.484;2023-04-21T00:22:56;101131.94;;;13.19;100.00
26489;BME280;14169;43.684;10.484;2023-04-21T00:25:22;101133.84;;;13.14;100.00
26489;BME280;14169;43.684;10.484;2023-04-21T00:27:47;101128.91;;;13.07;100.00
26489;BME280;14169;43.684;10.484;2023-04-21T00:30:13;101123.91;;;13.01;100.00
26489;BME280;14169;43.684;10.484;2023-04-21T00:32:39;101129.19;;;12.99;100.00
26489;BME280;14169;43.684;10.484;2023-04-21T00:35:05;101123.19;;;12.96;100.00
26489;BME280;14169;43.684;10.484;2023-04-21T00:37:30;101122.47;;;12.92;100.00
26489;BME280;14169;43.684;10.484;2023-04-21T00:39:56;101115.53;;;12.91;100.00
26489;BME280;14169;43.684;10.484;2023-04-21T00:42:22;101115.53;;;12.91;100.00
26489;BME280;14169;43.684;10.484;2023-04-21T00:44:48;101117.13;;;12.95;100.00
26489;BME280;14169;43.684;10.484;2023-04-21T00:47:13;101113.53;;;12.98;100.00
26489;BME280;14169;43.684;10.484;2023-04-21T00:49:39;101114.53;;;12.94;100.00
26489;BME280;14169;43.684;10.484;2023-04-21T00:52:04;101118.09;;;12.93;100.00
26489;BME280;14169;43.684;10.484;2023-04-21T00:54:31;101118.38;;;12.85;100.00
26489;BME280;14169;43.684;10.484;2023-04-21T00:56:56;101115.97;;;12.79;100.00
26489;BME280;14169;43.684;10.484;2023-04-21T00:59:25;101106.41;;;12.78;100.00
26489;BME280;14169;43.684;10.484;2023-04-21T01:01:51;101110.09;;;12.73;100.00
26489;BME280;14169;43.684;10.484;2023-04-21T01:04:17;101112.56;;;12.76;100.00
26489;BME280;14169;43.684;10.484;2023-04-21T01:06:42;101093.38;;;12.77;100.00
26489;BME280;14169;43.684;10.484;2023-04-21T01:09:08;101105.59;;;12.76;100.00
26489;BME280;14169;43.684;10.484;2023-04-21T01:11:33;101099.34;;;12.80;100.00
26489;BME280;14169;43.684;10.484;2023-04-21T01:13:59;101103.78;;;12.78;100.00
26489;BME280;14169;43.684;10.484;2023-04-21T01:16:25;101100.38;;;12.76;100.00
26489;BME280;14169;43.684;10.484;2023-04-21T01:18:51;101097.88;;;12.73;100.00
26489;BME280;14169;43.684;10.484;2023-04-21T01:21:20;101101.38;;;12.72;100.00
26489;BME280;14169;43.684;10.484;2023-04-21T01:23:46;101099.63;;;12.73;100.00
26489;BME280;14169;43.684;10.484;2023-04-21T01:26:11;101098.69;;;12.75;100.00
26489;BME280;14169;43.684;10.484;2023-04-21T01:28:37;101093.31;;;12.78;100.00
26489;BME280;14169;43.684;10.484;2023-04-21T01:31:03;101094.25;;;12.77;100.00
26489;BME280;14169;43.684;10.484;2023-04-21T01:33:29;101104.72;;;12.76;100.00
26489;BME280;14169;43.684;10.484;2023-04-21T01:35:54;101101.38;;;12.72;100.00
26489;BME280;14169;43.684;10.484;2023-04-21T01:38:21;101104.06;;;12.71;100.00
26489;BME280;14169;43.684;10.484;2023-04-21T01:40:48;101100.59;;;12.70;100.00
26489;BME280;14169;43.684;10.484;2023-04-21T01:43:16;101104.13;;;12.69;100.00
26489;BME280;14169;43.684;10.484;2023-04-21T01:45:41;101106.88;;;12.64;100.00
26489;BME280;14169;43.684;10.484;2023-04-21T01:48:07;101110.50;;;12.60;100.00
26489;BME280;14169;43.684;10.484;2023-04-21T01:50:32;101103.72;;;12.55;100.00
26489;BME280;14169;43.684;10.484;2023-04-21T01:52:58;101099.41;;;12.54;100.00
26489;BME280;14169;43.684;10.484;2023-04-21T01:55:23;101097.78;;;12.50;100.00
26489;BME280;14169;43.684;10.484;2023-04-21T01:57:49;101111.66;;;12.52;100.00
26489;BME280;14169;43.684;10.484;2023-04-21T02:00:15;101103.81;;;12.52;100.00
26489;BME280;14169;43.684;10.484;2023-04-21T02:02:40;101100.56;;;12.45;100.00
26489;BME280;14169;43.684;10.484;2023-04-21T02:05:06;101107.66;;;12.42;100.00
26489;BME280;14169;43.684;10.484;2023-04-21T02:07:31;101101.78;;;12.35;100.00
26489;BME280;14169;43.684;10.484;2023-04-21T02:09:57;101107.97;;;12.33;100.00
26489;BME280;14169;43.684;10.484;2023-04-21T02:12:22;101112.53;;;12.26;100.00
26489;BME280;14169;43.684;10.484;2023-04-21T02:14:47;101120.31;;;12.28;100.00
26489;BME280;14169;43.684;10.484;2023-04-21T02:17:13;101109.84;;;12.29;100.00
26489;BME280;14169;43.684;10.484;2023-04-21T02:19:39;101115.88;;;12.31;100.00
26489;BME280;14169;43.684;10.484;2023-04-21T02:22:05;101111.78;;;12.23;100.00
26489;BME280;14169;43.684;10.484;2023-04-21T02:24:32;101121.38;;;12.22;100.00
26489;BME280;14169;43.684;10.484;2023-04-21T02:26:58;101110.97;;;12.21;100.00
26489;BME280;14169;43.684;10.484;2023-04-21T02:29:23;101121.56;;;12.16;100.00
26489;BME280;14169;43.684;10.484;2023-04-21T02:31:49;101112.03;;;12.15;100.00
26489;BME280;14169;43.684;10.484;2023-04-21T02:34:16;101122.50;;;12.14;100.00
26489;BME280;14169;43.684;10.484;2023-04-21T02:36:42;101120.03;;;12.11;100.00
26489;BME280;14169;43.684;10.484;2023-04-21T02:39:07;101124.44;;;12.09;100.00
26489;BME280;14169;43.684;10.484;2023-04-21T02:41:33;101123.63;;;12.07;100.00
26489;BME280;14169;43.684;10.484;2023-04-21T02:43:58;101120.28;;;12.03;100.00
26489;BME280;14169;43.684;10.484;2023-04-21T02:46:23;101126.50;;;11.99;100.00
26489;BME280;14169;43.684;10.484;2023-04-21T02:48:49;101124.88;;;11.95;100.00
26489;BME280;14169;43.684;10.484;2023-04-21T02:51:15;101122.38;;;11.91;100.00
26489;BME280;14169;43.684;10.484;2023-04-21T02:53:40;101117.28;;;11.86;100.00
26489;BME280;14169;43.684;10.484;2023-04-21T02:56:07;101114.66;;;11.86;100.00
26489;BME280;14169;43.684;10.484;2023-04-21T02:58:36;101119.13;;;11.82;100.00
26489;BME280;14169;43.684;10.484;2023-04-21T03:01:02;101125.25;;;11.81;100.00
26489;BME280;14169;43.684;10.484;2023-04-21T03:03:28;101121.06;;;11.77;100.00
26489;BME280;14169;43.684;10.484;2023-04-21T03:06:02;101116.03;;;11.70;100.00
26489;BME280;14169;43.684;10.484;2023-04-21T03:08:29;101118.63;;;11.71;100.00
26489;BME280;14169;43.684;10.484;2023-04-21T03:10:55;101121.38;;;11.67;100.00
26489;BME280;14169;43.684;10.484;2023-04-21T03:13:21;101122.25;;;11.66;100.00
26489;BME280;14169;43.684;10.484;2023-04-21T03:15:47;101120.63;;;11.63;100.00
26489;BME280;14169;43.684;10.484;2023-04-21T03:18:13;101119.81;;;11.61;100.00
26489;BME280;14169;43.684;10.484;2023-04-21T03:20:38;101118.44;;;11.48;100.00
26489;BME280;14169;43.684;10.484;2023-04-21T03:23:04;101129.88;;;11.44;100.00
26489;BME280;14169;43.684;10.484;2023-04-21T03:25:29;101126.41;;;11.44;100.00
26489;BME280;14169;43.684;10.484;2023-04-21T03:27:55;101119.44;;;11.44;100.00
26489;BME280;14169;43.684;10.484;2023-04-21T03:30:21;101113.34;;;11.45;100.00
26489;BME280;14169;43.684;10.484;2023-04-21T03:32:49;101124.69;;;11.43;100.00
26489;BME280;14169;43.684;10.484;2023-04-21T03:35:14;101117.75;;;11.43;100.00
26489;BME280;14169;43.684;10.484;2023-04-21T03:37:40;101116.94;;;11.41;100.00
26489;BME280;14169;43.684;10.484;2023-04-21T03:40:06;101120.47;;;11.39;100.00
26489;BME280;14169;43.684;10.484;2023-04-21T03:42:33;101120.53;;;11.37;100.00
26489;BME280;14169;43.684;10.484;2023-04-21T03:45:05;101123.13;;;11.37;100.00
26489;BME280;14169;43.684;10.484;2023-04-21T03:47:31;101122.34;;;11.34;100.00
26489;BME280;14169;43.684;10.484;2023-04-21T03:49:57;101122.41;;;11.32;100.00
26489;BME280;14169;43.684;10.484;2023-04-21T03:52:22;101119.09;;;11.27;100.00
26489;BME280;14169;43.684;10.484;2023-04-21T03:54:48;101122.63;;;11.25;100.00
26489;BME280;14169;43.684;10.484;2023-04-21T03:57:14;101123.56;;;11.22;100.00
26489;BME280;14169;43.684;10.484;2023-04-21T03:59:39;101121.94;;;11.18;100.00
26489;BME280;14169;43.684;10.484;2023-04-21T04:02:05;101122.09;;;11.12;100.00
26489;BME280;14169;43.684;10.484;2023-04-21T04:04:30;101114.34;;;11.11;100.00
26489;BME280;14169;43.684;10.484;2023-04-21T04:06:55;101119.59;;;11.09;100.00
26489;BME280;14169;43.684;10.484;2023-04-21T04:09:21;101119.59;;;11.09;100.00
26489;BME280;14169;43.684;10.484;2023-04-21T04:11:47;101119.59;;;11.09;100.00
26489;BME280;14169;43.684;10.484;2023-04-21T04:14:12;101114.38;;;11.09;100.00
26489;BME280;14169;43.684;10.484;2023-04-21T04:16:38;101115.25;;;11.10;100.00
26489;BME280;14169;43.684;10.484;2023-04-21T04:19:03;101120.41;;;11.11;100.00
26489;BME280;14169;43.684;10.484;2023-04-21T04:21:29;101122.03;;;11.15;100.00
26489;BME280;14169;43.684;10.484;2023-04-21T04:23:55;101130.63;;;11.19;100.00
26489;BME280;14169;43.684;10.484;2023-04-21T04:26:20;101133.09;;;11.23;100.00
26489;BME280;14169;43.684;10.484;2023-04-21T04:28:50;101139.97;;;11.26;100.00
26489;BME280;14169;43.684;10.484;2023-04-21T04:31:15;101139.94;;;11.27;100.00
26489;BME280;14169;43.684;10.484;2023-04-21T04:33:41;101132.13;;;11.26;100.00
26489;BME280;14169;43.684;10.484;2023-04-21T04:36:07;101133.91;;;11.25;100.00
26489;BME280;14169;43.684;10.484;2023-04-21T04:38:32;101140.94;;;11.22;100.00
26489;BME280;14169;43.684;10.484;2023-04-21T04:41:04;101137.56;;;11.18;100.00
26489;BME280;14169;43.684;10.484;2023-04-21T04:43:30;101148.91;;;11.17;100.00
26489;BME280;14169;43.684;10.484;2023-04-21T04:46:01;101149.84;;;11.15;100.00
26489;BME280;14169;43.684;10.484;2023-04-21T04:48:27;101157.72;;;11.13;100.00
26489;BME280;14169;43.684;10.484;2023-04-21T04:50:52;101161.25;;;11.11;100.00
26489;BME280;14169;43.684;10.484;2023-04-21T04:53:17;101165.66;;;11.09;100.00
26489;BME280;14169;43.684;10.484;2023-04-21T04:55:43;101164.72;;;11.11;100.00
26489;BME280;14169;43.684;10.484;2023-04-21T04:58:08;101173.28;;;11.16;100.00
26489;BME280;14169;43.684;10.484;2023-04-21T05:00:34;101172.28;;;11.20;100.00
26489;BME280;14169;43.684;10.484;2023-04-21T05:03:01;101182.72;;;11.20;100.00
26489;BME280;14169;43.684;10.484;2023-04-21T05:05:26;101189.72;;;11.18;100.00
26489;BME280;14169;43.684;10.484;2023-04-21T05:07:51;101189.84;;;11.15;100.00
26489;BME280;14169;43.684;10.484;2023-04-21T05:10:17;101198.59;;;11.13;100.00
26489;BME280;14169;43.684;10.484;2023-04-21T05:12:42;101195.72;;;11.22;100.00
26489;BME280;14169;43.684;10.484;2023-04-21T05:15:08;101199.19;;;11.22;100.00
26489;BME280;14169;43.684;10.484;2023-04-21T05:17:33;101197.22;;;11.30;100.00
26489;BME280;14169;43.684;10.484;2023-04-21T05:19:59;101204.00;;;11.36;100.00
26489;BME280;14169;43.684;10.484;2023-04-21T05:22:24;101204.75;;;11.41;100.00
26489;BME280;14169;43.684;10.484;2023-04-21T05:24:51;101201.94;;;11.48;100.00
26489;BME280;14169;43.684;10.484;2023-04-21T05:27:16;101207.03;;;11.53;100.00
26489;BME280;14169;43.684;10.484;2023-04-21T05:29:42;101213.00;;;11.56;100.00
26489;BME280;14169;43.684;10.484;2023-04-21T05:32:07;101214.50;;;11.65;100.00
26489;BME280;14169;43.684;10.484;2023-04-21T05:34:33;101216.34;;;11.61;100.00
26489;BME280;14169;43.684;10.484;2023-04-21T05:36:59;101216.19;;;11.66;100.00
26489;BME280;14169;43.684;10.484;2023-04-21T05:39:26;101224.78;;;11.71;100.00
26489;BME280;14169;43.684;10.484;2023-04-21T05:41:51;101211.59;;;11.75;100.00
26489;BME280;14169;43.684;10.484;2023-04-21T05:44:17;101213.88;;;11.86;100.00
26489;BME280;14169;43.684;10.484;2023-04-21T05:46:42;101211.94;;;11.93;100.00
26489;BME280;14169;43.684;10.484;2023-04-21T05:49:08;101205.47;;;12.06;100.00
26489;BME280;14169;43.684;10.484;2023-04-21T05:51:33;101213.94;;;12.14;100.00
26489;BME280;14169;43.684;10.484;2023-04-21T05:53:58;101210.31;;;12.18;100.00
26489;BME280;14169;43.684;10.484;2023-04-21T05:56:24;101207.56;;;12.22;100.00
26489;BME280;14169;43.684;10.484;2023-04-21T05:58:49;101206.50;;;12.29;100.00
26489;BME280;14169;43.684;10.484;2023-04-21T06:01:15;101207.13;;;12.36;100.00
26489;BME280;14169;43.684;10.484;2023-04-21T06:03:40;101199.97;;;12.42;100.00
26489;BME280;14169;43.684;10.484;2023-04-21T06:06:06;101200.53;;;12.52;100.00
26489;BME280;14169;43.684;10.484;2023-04-21T06:08:32;101206.50;;;12.55;100.00
26489;BME280;14169;43.684;10.484;2023-04-21T06:10:57;101210.78;;;12.58;100.00
26489;BME280;14169;43.684;10.484;2023-04-21T06:13:23;101214.13;;;12.61;100.00
26489;BME280;14169;43.684;10.484;2023-04-21T06:15:48;101208.69;;;12.69;100.00
26489;BME280;14169;43.684;10.484;2023-04-21T06:18:14;101202.44;;;12.73;100.00
26489;BME280;14169;43.684;10.484;2023-04-21T06:20:40;101209.09;;;12.82;100.00
26489;BME280;14169;43.684;10.484;2023-04-21T06:23:05;101210.63;;;12.89;100.00
26489;BME280;14169;43.684;10.484;2023-04-21T06:25:31;101212.28;;;12.91;100.00
26489;BME280;14169;43.684;10.484;2023-04-21T06:27:56;101207.94;;;12.90;100.00
26489;BME280;14169;43.684;10.484;2023-04-21T06:30:22;101213.91;;;12.94;100.00
26489;BME280;14169;43.684;10.484;2023-04-21T06:32:47;101219.59;;;13.06;100.00
26489;BME280;14169;43.684;10.484;2023-04-21T06:35:13;101220.97;;;13.18;100.00
26489;BME280;14169;43.684;10.484;2023-04-21T06:37:42;101225.72;;;13.31;100.00
26489;BME280;14169;43.684;10.484;2023-04-21T06:40:08;101221.84;;;13.41;100.00
26489;BME280;14169;43.684;10.484;2023-04-21T06:42:33;101221.47;;;13.52;100.00
26489;BME280;14169;43.684;10.484;2023-04-21T06:44:58;101225.75;;;13.55;100.00
26489;BME280;14169;43.684;10.484;2023-04-21T06:47:24;101221.03;;;13.64;100.00
26489;BME280;14169;43.684;10.484;2023-04-21T06:49:50;101217.25;;;13.71;100.00
26489;BME280;14169;43.684;10.484;2023-04-21T06:52:16;101219.31;;;13.86;100.00
26489;BME280;14169;43.684;10.484;2023-04-21T06:54:41;101220.56;;;13.99;100.00
26489;BME280;14169;43.684;10.484;2023-04-21T06:57:06;101213.22;;;14.09;100.00
26489;BME280;14169;43.684;10.484;2023-04-21T06:59:32;101218.09;;;14.18;100.00
26489;BME280;14169;43.684;10.484;2023-04-21T07:01:58;101221.19;;;14.27;100.00
26489;BME280;14169;43.684;10.484;2023-04-21T07:04:24;101219.16;;;14.36;100.00
26489;BME280;14169;43.684;10.484;2023-04-21T07:06:54;101218.81;;;14.45;100.00
26489;BME280;14169;43.684;10.484;2023-04-21T07:09:20;101223.84;;;14.49;100.00
26489;BME280;14169;43.684;10.484;2023-04-21T07:11:45;101228.19;;;14.50;100.00
26489;BME280;14169;43.684;10.484;2023-04-21T07:14:11;101227.09;;;14.56;100.00
26489;BME280;14169;43.684;10.484;2023-04-21T07:16:36;101220.69;;;14.63;100.00
26489;BME280;14169;43.684;10.484;2023-04-21T07:19:01;101223.84;;;14.71;100.00
26489;BME280;14169;43.684;10.484;2023-04-21T07:21:27;101227.38;;;14.70;100.00
26489;BME280;14169;43.684;10.484;2023-04-21T07:23:54;101224.44;;;14.77;100.00
26489;BME280;14169;43.684;10.484;2023-04-21T07:26:19;101232.25;;;14.79;100.00
26489;BME280;14169;43.684;10.484;2023-04-21T07:28:45;101228.72;;;14.80;100.00
26489;BME280;14169;43.684;10.484;2023-04-21T07:31:10;101228.63;;;14.81;100.00
26489;BME280;14169;43.684;10.484;2023-04-21T07:33:35;101217.09;;;14.85;100.00
26489;BME280;14169;43.684;10.484;2023-04-21T07:36:01;101220.72;;;14.83;100.00
26489;BME280;14169;43.684;10.484;2023-04-21T07:38:26;101224.72;;;14.91;100.00
26489;BME280;14169;43.684;10.484;2023-04-21T07:40:52;101222.50;;;15.02;100.00
26489;BME280;14169;43.684;10.484;2023-04-21T07:43:17;101228.94;;;15.15;100.00
26489;BME280;14169;43.684;10.484;2023-04-21T07:45:44;101230.16;;;15.27;100.00
26489;BME280;14169;43.684;10.484;2023-04-21T07:48:09;101236.94;;;15.33;100.00
26489;BME280;14169;43.684;10.484;2023-04-21T07:50:35;101239.41;;;15.36;100.00
26489;BME280;14169;43.684;10.484;2023-04-21T07:53:01;101236.63;;;15.40;100.00
26489;BME280;14169;43.684;10.484;2023-04-21T07:55:27;101237.94;;;15.50;100.00
26489;BME280;14169;43.684;10.484;2023-04-21T07:57:52;101248.25;;;15.55;100.00
26489;BME280;14169;43.684;10.484;2023-04-21T08:00:18;101258.34;;;15.64;100.00
26489;BME280;14169;43.684;10.484;2023-04-21T08:02:43;101251.59;;;15.77;100.00
26489;BME280;14169;43.684;10.484;2023-04-21T08:05:09;101256.16;;;15.73;100.00
26489;BME280;14169;43.684;10.484;2023-04-21T08:07:34;101255.47;;;15.88;100.00
26489;BME280;14169;43.684;10.484;2023-04-21T08:10:00;101265.06;;;16.08;100.00
26489;BME280;14169;43.684;10.484;2023-04-21T08:12:26;101259.09;;;16.23;100.00
26489;BME280;14169;43.684;10.484;2023-04-21T08:14:52;101259.19;;;16.40;100.00
26489;BME280;14169;43.684;10.484;2023-04-21T08:17:17;101262.94;;;16.53;100.00
26489;BME280;14169;43.684;10.484;2023-04-21T08:19:42;101264.97;;;16.65;100.00
26489;BME280;14169;43.684;10.484;2023-04-21T08:22:08;101259.50;;;16.87;100.00
26489;BME280;14169;43.684;10.484;2023-04-21T08:24:33;101264.75;;;16.87;100.00
26489;BME280;14169;43.684;10.484;2023-04-21T08:26:59;101264.25;;;16.98;100.00
26489;BME280;14169;43.684;10.484;2023-04-21T08:29:26;101277.94;;;17.04;100.00
26489;BME280;14169;43.684;10.484;2023-04-21T08:31:52;101276.41;;;17.17;100.00
26489;BME280;14169;43.684;10.484;2023-04-21T08:34:17;101273.91;;;17.31;100.00
26489;BME280;14169;43.684;10.484;2023-04-21T08:36:44;101275.22;;;17.57;100.00
26489;BME280;14169;43.684;10.484;2023-04-21T08:39:11;101274.03;;;17.80;100.00
26489;BME280;14169;43.684;10.484;2023-04-21T08:41:40;101279.00;;;18.01;100.00
26489;BME280;14169;43.684;10.484;2023-04-21T08:44:06;101292.53;;;18.11;100.00
26489;BME280;14169;43.684;10.484;2023-04-21T08:46:32;101297.56;;;18.15;100.00
26489;BME280;14169;43.684;10.484;2023-04-21T08:48:57;101292.06;;;18.20;100.00
26489;BME280;14169;43.684;10.484;2023-04-21T08:51:26;101290.31;;;18.36;100.00
26489;BME280;14169;43.684;10.484;2023-04-21T08:53:53;101290.06;;;18.56;100.00
26489;BME280;14169;43.684;10.484;2023-04-21T08:56:19;101293.78;;;18.68;100.00
26489;BME280;14169;43.684;10.484;2023-04-21T08:58:45;101293.50;;;18.88;100.00
26489;BME280;14169;43.684;10.484;2023-04-21T09:01:10;101294.69;;;18.98;100.00
26489;BME280;14169;43.684;10.484;2023-04-21T09:03:36;101296.56;;;18.96;100.00
26489;BME280;14169;43.684;10.484;2023-04-21T09:06:04;101291.59;;;19.05;100.00
26489;BME280;14169;43.684;10.484;2023-04-21T09:08:31;101293.59;;;19.31;100.00
26489;BME280;14169;43.684;10.484;2023-04-21T09:10:57;101292.97;;;19.56;100.00
26489;BME280;14169;43.684;10.484;2023-04-21T09:13:32;101293.56;;;19.61;100.00
26489;BME280;14169;43.684;10.484;2023-04-21T09:15:59;101310.06;;;19.65;100.00
26489;BME280;14169;43.684;10.484;2023-04-21T09:18:26;101308.50;;;19.32;100.00
26489;BME280;14169;43.684;10.484;2023-04-21T09:21:13;101310.97;;;19.35;100.00
26489;BME280;14169;43.684;10.484;2023-04-21T09:23:46;101308.75;;;19.58;100.00
26489;BME280;14169;43.684;10.484;2023-04-21T09:26:13;101307.53;;;19.77;100.00
26489;BME280;14169;43.684;10.484;2023-04-21T09:28:46;101310.56;;;19.71;100.00
26489;BME280;14169;43.684;10.484;2023-04-21T09:31:13;101310.56;;;19.71;100.00
26489;BME280;14169;43.684;10.484;2023-04-21T09:33:43;101312.16;;;19.60;100.00
26489;BME280;14169;43.684;10.484;2023-04-21T09:36:17;101311.84;;;19.94;100.00
26489;BME280;14169;43.684;10.484;2023-04-21T09:38:48;101310.75;;;20.25;100.00
26489;BME280;14169;43.684;10.484;2023-04-21T09:41:16;101315.09;;;20.40;100.00
26489;BME280;14169;43.684;10.484;2023-04-21T09:43:41;101311.72;;;20.24;100.00
26489;BME280;14169;43.684;10.484;2023-04-21T09:46:06;101307.78;;;20.57;100.00
26489;BME280;14169;43.684;10.484;2023-04-21T09:48:34;101309.13;;;20.91;100.00
26489;BME280;14169;43.684;10.484;2023-04-21T09:51:01;101312.16;;;21.12;100.00
26489;BME280;14169;43.684;10.484;2023-04-21T09:53:27;101307.22;;;21.32;100.00
26489;BME280;14169;43.684;10.484;2023-04-21T09:55:53;101302.28;;;21.53;100.00
26489;BME280;14169;43.684;10.484;2023-04-21T09:58:22;101309.41;;;21.90;100.00
26489;BME280;14169;43.684;10.484;2023-04-21T10:00:52;101299.31;;;22.08;100.00
26489;BME280;14169;43.684;10.484;2023-04-21T10:03:25;101296.25;;;22.01;100.00
26489;BME280;14169;43.684;10.484;2023-04-21T10:05:51;101299.66;;;21.91;100.00
26489;BME280;14169;43.684;10.484;2023-04-21T10:08:17;101297.63;;;21.94;100.00
26489;BME280;14169;43.684;10.484;2023-04-21T10:10:44;101303.81;;;21.69;100.00
26489;BME280;14169;43.684;10.484;2023-04-21T10:13:13;101297.28;;;21.48;100.00
26489;BME280;14169;43.684;10.484;2023-04-21T10:15:41;101289.34;;;21.48;100.00
26489;BME280;14169;43.684;10.484;2023-04-21T10:18:24;101288.09;;;21.66;100.00
26489;BME280;14169;43.684;10.484;2023-04-21T10:20:55;101290.63;;;21.55;100.00
26489;BME280;14169;43.684;10.484;2023-04-21T10:23:27;101298.91;;;21.88;100.00
26489;BME280;14169;43.684;10.484;2023-04-21T10:26:00;101300.50;;;22.04;100.00
26489;BME280;14169;43.684;10.484;2023-04-21T10:28:47;101301.97;;;21.70;100.00
26489;BME280;14169;43.684;10.484;2023-04-21T10:31:17;101295.81;;;21.95;100.00
26489;BME280;14169;43.684;10.484;2023-04-21T10:39:09;101285.44;;;22.77;100.00
26489;BME280;14169;43.684;10.484;2023-04-21T10:41:42;101290.16;;;22.84;100.00
26489;BME280;14169;43.684;10.484;2023-04-21T10:44:12;101293.88;;;22.58;100.00
26489;BME280;14169;43.684;10.484;2023-04-21T10:49:09;101293.19;;;23.03;100.00
26489;BME280;14169;43.684;10.484;2023-04-21T10:57:08;101276.97;;;22.95;100.00
26489;BME280;14169;43.684;10.484;2023-04-21T10:59:34;101271.13;;;22.90;100.00
26489;BME280;14169;43.684;10.484;2023-04-21T11:02:08;101270.44;;;22.52;100.00
26489;BME280;14169;43.684;10.484;2023-04-21T11:04:35;101266.09;;;22.51;100.00
26489;BME280;14169;43.684;10.484;2023-04-21T11:07:09;101265.13;;;22.52;100.00
26489;BME280;14169;43.684;10.484;2023-04-21T11:09:36;101263.69;;;22.72;100.00
26489;BME280;14169;43.684;10.484;2023-04-21T11:12:04;101260.09;;;22.84;98.14
26489;BME280;14169;43.684;10.484;2023-04-21T11:14:32;101272.28;;;22.99;95.13
26489;BME280;14169;43.684;10.484;2023-04-21T11:16:58;101266.72;;;23.36;91.14
26489;BME280;14169;43.684;10.484;2023-04-21T11:19:23;101268.72;;;23.90;88.28
26489;BME280;14169;43.684;10.484;2023-04-21T11:21:51;101257.94;;;24.35;84.72
26489;BME280;14169;43.684;10.484;2023-04-21T11:24:19;101261.94;;;24.08;94.68
26489;BME280;14169;43.684;10.484;2023-04-21T11:26:44;101259.94;;;22.74;100.00
26489;BME280;14169;43.684;10.484;2023-04-21T11:29:10;101252.28;;;22.46;100.00
26489;BME280;14169;43.684;10.484;2023-04-21T11:31:38;101256.94;;;22.55;100.00
26489;BME280;14169;43.684;10.484;2023-04-21T11:34:05;101257.66;;;22.81;100.00
26489;BME280;14169;43.684;10.484;2023-04-21T11:36:38;101259.88;;;22.87;100.00
26489;BME280;14169;43.684;10.484;2023-04-21T11:39:05;101256.34;;;22.86;100.00
26489;BME280;14169;43.684;10.484;2023-04-21T11:41:32;101256.34;;;23.10;100.00
26489;BME280;14169;43.684;10.484;2023-04-21T11:43:58;101259.72;;;23.01;100.00
26489;BME280;14169;43.684;10.484;2023-04-21T11:46:25;101265.25;;;22.50;100.00
26489;BME280;14169;43.684;10.484;2023-04-21T11:49:16;101262.19;;;22.44;100.00
26489;BME280;14169;43.684;10.484;2023-04-21T11:51:42;101259.81;;;22.52;100.00
26489;BME280;14169;43.684;10.484;2023-04-21T11:54:10;101260.19;;;21.61;100.00
26489;BME280;14169;43.684;10.484;2023-04-21T11:56:37;101262.78;;;21.23;100.00
26489;BME280;14169;43.684;10.484;2023-04-21T11:59:14;101254.22;;;21.82;100.00
26489;BME280;14169;43.684;10.484;2023-04-21T12:01:50;101259.50;;;22.08;100.00
26489;BME280;14169;43.684;10.484;2023-04-21T12:04:17;101274.84;;;22.64;100.00
26489;BME280;14169;43.684;10.484;2023-04-21T12:06:44;101264.56;;;22.83;100.00
26489;BME280;14169;43.684;10.484;2023-04-21T12:09:16;101270.72;;;22.24;100.00
26489;BME280;14169;43.684;10.484;2023-04-21T12:11:41;101272.72;;;22.20;100.00
26489;BME280;14169;43.684;10.484;2023-04-21T12:14:07;101269.91;;;22.11;100.00
26489;BME280;14169;43.684;10.484;2023-04-21T12:16:35;101265.44;;;22.11;100.00
26489;BME280;14169;43.684;10.484;2023-04-21T12:19:01;101272.66;;;22.22;100.00
26489;BME280;14169;43.684;10.484;2023-04-21T12:21:27;101262.41;;;22.41;100.00
26489;BME280;14169;43.684;10.484;2023-04-21T12:23:53;101269.59;;;22.75;100.00
26489;BME280;14169;43.684;10.484;2023-04-21T12:26:21;101273.81;;;22.54;100.00
26489;BME280;14169;43.684;10.484;2023-04-21T12:28:49;101268.06;;;22.84;100.00
26489;BME280;14169;43.684;10.484;2023-04-21T12:31:14;101265.19;;;22.87;100.00
26489;BME280;14169;43.684;10.484;2023-04-21T12:33:40;101273.34;;;22.73;100.00
26489;BME280;14169;43.684;10.484;2023-04-21T12:36:06;101276.66;;;22.87;100.00
26489;BME280;14169;43.684;10.484;2023-04-21T12:38:31;101283.13;;;23.19;100.00
26489;BME280;14169;43.684;10.484;2023-04-21T12:40:57;101276.50;;;23.36;100.00